sensor_id;sensor_type;location;lat;lon;timestamp;pressure;altitude;pressure_sealevel;temperature
32039;BMP280;18549;42.286;22.688;2023-04-07T00:01:28;95404.50;;;9.19
32039;BMP280;18549;42.286;22.688;2023-04-07T00:03:54;95411.22;;;9.17
32039;BMP280;18549;42.286;22.688;2023-04-07T00:06:21;95412.97;;;9.15
32039;BMP280;18549;42.286;22.688;2023-04-07T00:08:49;95411.41;;;9.14
32039;BMP280;18549;42.286;22.688;2023-04-07T00:11:16;95413.19;;;9.12
32039;BMP280;18549;42.286;22.688;2023-04-07T00:13:43;95416.56;;;9.11
32039;BMP280;18549;42.286;22.688;2023-04-07T00:16:10;95422.44;;;9.08
32039;BMP280;18549;42.286;22.688;2023-04-07T00:18:36;95420.94;;;9.06
32039;BMP280;18549;42.286;22.688;2023-04-07T00:21:03;95418.47;;;9.06
32039;BMP280;18549;42.286;22.688;2023-04-07T00:23:30;95409.41;;;9.06
32039;BMP280;18549;42.286;22.688;2023-04-07T00:25:58;95418.59;;;9.04
32039;BMP280;18549;42.286;22.688;2023-04-07T00:28:26;95416.19;;;9.03
32039;BMP280;18549;42.286;22.688;2023-04-07T00:30:52;95416.00;;;9.06
32039;BMP280;18549;42.286;22.688;2023-04-07T00:33:19;95412.75;;;9.05
32039;BMP280;18549;42.286;22.688;2023-04-07T00:35:47;95412.16;;;9.02
32039;BMP280;18549;42.286;22.688;2023-04-07T00:38:13;95412.94;;;9.02
32039;BMP280;18549;42.286;22.688;2023-04-07T00:40:40;95411.44;;;9.00
32039;BMP280;18549;42.286;22.688;2023-04-07T00:43:08;95415.69;;;8.98
32039;BMP280;18549;42.286;22.688;2023-04-07T00:45:35;95418.63;;;8.90
32039;BMP280;18549;42.286;22.688;2023-04-07T00:48:04;95415.34;;;8.90
32039;BMP280;18549;42.286;22.688;2023-04-07T00:50:31;95411.38;;;8.88
32039;BMP280;18549;42.286;22.688;2023-04-07T00:52:58;95416.78;;;8.80
32039;BMP280;18549;42.286;22.688;2023-04-07T00:55:26;95422.63;;;8.79
32039;BMP280;18549;42.286;22.688;2023-04-07T00:57:53;95423.47;;;8.78
32039;BMP280;18549;42.286;22.688;2023-04-07T01:00:22;95414.50;;;8.77
32039;BMP280;18549;42.286;22.688;2023-04-07T01:02:56;95426.66;;;8.80
32039;BMP280;18549;42.286;22.688;2023-04-07T01:05:31;95421.13;;;8.77
32039;BMP280;18549;42.286;22.688;2023-04-07T01:08:07;95422.69;;;8.78
32039;BMP280;18549;42.286;22.688;2023-04-07T01:10:50;95418.91;;;8.72
32039;BMP280;18549;42.286;22.688;2023-04-07T01:13:22;95430.91;;;8.64
32039;BMP280;18549;42.286;22.688;2023-04-07T01:15:53;95435.34;;;8.59
32039;BMP280;18549;42.286;22.688;2023-04-07T01:18:25;95430.91;;;8.64
32039;BMP280;18549;42.286;22.688;2023-04-07T01:20:55;95426.50;;;8.55
32039;BMP280;18549;42.286;22.688;2023-04-07T01:23:51;95426.16;;;8.48
32039;BMP280;18549;42.286;22.688;2023-04-07T01:26:24;95428.63;;;8.48
32039;BMP280;18549;42.286;22.688;2023-04-07T01:32:04;95423.16;;;8.56
32039;BMP280;18549;42.286;22.688;2023-04-07T01:34:33;95425.97;;;8.51
32039;BMP280;18549;42.286;22.688;2023-04-07T01:37:01;95424.22;;;8.39
32039;BMP280;18549;42.286;22.688;2023-04-07T01:39:28;95411.97;;;8.37
32039;BMP280;18549;42.286;22.688;2023-04-07T01:41:56;95415.94;;;8.40
32039;BMP280;18549;42.286;22.688;2023-04-07T01:44:24;95413.19;;;8.44
32039;BMP280;18549;42.286;22.688;2023-04-07T01:46:53;95419.47;;;8.50
32039;BMP280;18549;42.286;22.688;2023-04-07T01:49:22;95418.75;;;8.48
32039;BMP280;18549;42.286;22.688;2023-04-07T01:51:50;95419.63;;;8.47
32039;BMP280;18549;42.286;22.688;2023-04-07T01:54:18;95419.81;;;8.44
32039;BMP280;18549;42.286;22.688;2023-04-07T01:56:45;95422.19;;;8.45
32039;BMP280;18549;42.286;22.688;2023-04-07T01:59:12;95417.97;;;8.47
32039;BMP280;18549;42.286;22.688;2023-04-07T02:01:39;95417.34;;;8.44
32039;BMP280;18549;42.286;22.688;2023-04-07T02:04:10;95418.94;;;8.45
32039;BMP280;18549;42.286;22.688;2023-04-07T02:06:43;95408.16;;;8.46
32039;BMP280;18549;42.286;22.688;2023-04-07T02:09:12;95411.88;;;8.39
32039;BMP280;18549;42.286;22.688;2023-04-07T02:11:42;95415.50;;;8.33
32039;BMP280;18549;42.286;22.688;2023-04-07T02:14:10;95407.22;;;8.34
32039;BMP280;18549;42.286;22.688;2023-04-07T02:16:40;95408.81;;;8.35
32039;BMP280;18549;42.286;22.688;2023-04-07T02:19:08;95404.66;;;8.36
32039;BMP280;18549;42.286;22.688;2023-04-07T02:21:35;95403.94;;;8.34
32039;BMP280;18549;42.286;22.688;2023-04-07T02:24:06;95404.03;;;8.32
32039;BMP280;18549;42.286;22.688;2023-04-07T02:26:34;95397.69;;;8.28
32039;BMP280;18549;42.286;22.688;2023-04-07T02:29:01;95400.97;;;8.29
32039;BMP280;18549;42.286;22.688;2023-04-07T02:31:28;95400.31;;;8.25
32039;BMP280;18549;42.286;22.688;2023-04-07T02:33:54;95407.03;;;8.23
32039;BMP280;18549;42.286;22.688;2023-04-07T02:36:21;95404.56;;;8.23
32039;BMP280;18549;42.286;22.688;2023-04-07T02:38:48;95403.06;;;8.21
32039;BMP280;18549;42.286;22.688;2023-04-07T02:41:16;95401.47;;;8.20
32039;BMP280;18549;42.286;22.688;2023-04-07T02:43:43;95410.56;;;8.20
32039;BMP280;18549;42.286;22.688;2023-04-07T02:46:10;95408.78;;;8.22
32039;BMP280;18549;42.286;22.688;2023-04-07T02:48:37;95404.72;;;8.21
32039;BMP280;18549;42.286;22.688;2023-04-07T02:51:04;95404.72;;;8.21
32039;BMP280;18549;42.286;22.688;2023-04-07T02:53:30;95404.91;;;8.18
32039;BMP280;18549;42.286;22.688;2023-04-07T02:55:57;95406.75;;;8.14
32039;BMP280;18549;42.286;22.688;2023-04-07T02:58:25;95412.59;;;8.13
32039;BMP280;18549;42.286;22.688;2023-04-07T03:00:52;95408.50;;;8.12
32039;BMP280;18549;42.286;22.688;2023-04-07T03:03:19;95418.50;;;8.11
32039;BMP280;18549;42.286;22.688;2023-04-07T03:05:46;95411.25;;;8.08
32039;BMP280;18549;42.286;22.688;2023-04-07T03:08:13;95416.09;;;8.09
32039;BMP280;18549;42.286;22.688;2023-04-07T03:10:40;95411.09;;;8.11
32039;BMP280;18549;42.286;22.688;2023-04-07T03:13:08;95412.87;;;8.07
32039;BMP280;18549;42.286;22.688;2023-04-07T03:15:38;95417.28;;;8.02
32039;BMP280;18549;42.286;22.688;2023-04-07T03:18:05;95415.53;;;7.90
32039;BMP280;18549;42.286;22.688;2023-04-07T03:20:31;95421.97;;;7.93
32039;BMP280;18549;42.286;22.688;2023-04-07T03:22:58;95433.50;;;7.92
32039;BMP280;18549;42.286;22.688;2023-04-07T03:25:25;95428.56;;;7.92
32039;BMP280;18549;42.286;22.688;2023-04-07T03:27:52;95418.69;;;7.92
32039;BMP280;18549;42.286;22.688;2023-04-07T03:30:19;95423.62;;;7.92
32039;BMP280;18549;42.286;22.688;2023-04-07T03:32:47;95430.16;;;7.93
32039;BMP280;18549;42.286;22.688;2023-04-07T03:35:14;95434.38;;;7.91
32039;BMP280;18549;42.286;22.688;2023-04-07T03:37:40;95433.38;;;7.80
32039;BMP280;18549;42.286;22.688;2023-04-07T03:40:08;95430.38;;;7.75
32039;BMP280;18549;42.286;22.688;2023-04-07T03:42:35;95432.66;;;7.78
32039;BMP280;18549;42.286;22.688;2023-04-07T03:45:01;95427.91;;;7.75
32039;BMP280;18549;42.286;22.688;2023-04-07T03:47:28;95436.97;;;7.75
32039;BMP280;18549;42.286;22.688;2023-04-07T03:49:56;95429.59;;;7.75
32039;BMP280;18549;42.286;22.688;2023-04-07T03:52:23;95440.16;;;7.77
32039;BMP280;18549;42.286;22.688;2023-04-07T03:54:50;95435.94;;;7.79
32039;BMP280;18549;42.286;22.688;2023-04-07T03:57:16;95443.41;;;7.77
32039;BMP280;18549;42.286;22.688;2023-04-07T03:59:43;95449.13;;;7.78
32039;BMP280;18549;42.286;22.688;2023-04-07T04:02:10;95450.75;;;7.79
32039;BMP280;18549;42.286;22.688;2023-04-07T04:04:37;95445.09;;;7.77
32039;BMP280;18549;42.286;22.688;2023-04-07T04:07:05;95448.34;;;7.77
32039;BMP280;18549;42.286;22.688;2023-04-07T04:09:32;95454.88;;;7.78
32039;BMP280;18549;42.286;22.688;2023-04-07T04:11:59;95457.31;;;7.78
32039;BMP280;18549;42.286;22.688;2023-04-07T04:14:26;95454.88;;;7.78
32039;BMP280;18549;42.286;22.688;2023-04-07T04:16:53;95456.66;;;7.76
32039;BMP280;18549;42.286;22.688;2023-04-07T04:19:20;95454.25;;;7.75
32039;BMP280;18549;42.286;22.688;2023-04-07T04:21:47;95456.06;;;7.71
32039;BMP280;18549;42.286;22.688;2023-04-07T04:24:15;95450.28;;;7.72
32039;BMP280;18549;42.286;22.688;2023-04-07T04:26:41;95459.34;;;7.72
32039;BMP280;18549;42.286;22.688;2023-04-07T04:29:08;95459.25;;;7.73
32039;BMP280;18549;42.286;22.688;2023-04-07T04:31:35;95455.22;;;7.72
32039;BMP280;18549;42.286;22.688;2023-04-07T04:34:02;95457.75;;;7.71
32039;BMP280;18549;42.286;22.688;2023-04-07T04:36:29;95453.78;;;7.68
32039;BMP280;18549;42.286;22.688;2023-04-07T04:38:55;95465.34;;;7.68
32039;BMP280;18549;42.286;22.688;2023-04-07T04:41:24;95461.13;;;7.70
32039;BMP280;18549;42.286;22.688;2023-04-07T04:43:50;95456.19;;;7.70
32039;BMP280;18549;42.286;22.688;2023-04-07T04:46:21;95456.25;;;7.68
32039;BMP280;18549;42.286;22.688;2023-04-07T04:48:48;95468.50;;;7.70
32039;BMP280;18549;42.286;22.688;2023-04-07T04:51:16;95459.34;;;7.72
32039;BMP280;18549;42.286;22.688;2023-04-07T04:53:43;95464.38;;;7.70
32039;BMP280;18549;42.286;22.688;2023-04-07T04:56:10;95461.00;;;7.71
32039;BMP280;18549;42.286;22.688;2023-04-07T04:58:38;95475.75;;;7.73
32039;BMP280;18549;42.286;22.688;2023-04-07T05:01:06;95474.25;;;7.70
32039;BMP280;18549;42.286;22.688;2023-04-07T05:03:33;95485.12;;;7.66
32039;BMP280;18549;42.286;22.688;2023-04-07T05:05:59;95485.12;;;7.66
32039;BMP280;18549;42.286;22.688;2023-04-07T05:08:26;95485.97;;;7.67
32039;BMP280;18549;42.286;22.688;2023-04-07T05:10:53;95486.75;;;7.67
32039;BMP280;18549;42.286;22.688;2023-04-07T05:13:20;95485.12;;;7.66
32039;BMP280;18549;42.286;22.688;2023-04-07T05:15:48;95489.28;;;7.66
32039;BMP280;18549;42.286;22.688;2023-04-07T05:18:15;95485.97;;;7.67
32039;BMP280;18549;42.286;22.688;2023-04-07T05:20:43;95490.72;;;7.70
32039;BMP280;18549;42.286;22.688;2023-04-07T05:23:10;95485.97;;;7.67
32039;BMP280;18549;42.286;22.688;2023-04-07T05:25:36;95490.72;;;7.70
32039;BMP280;18549;42.286;22.688;2023-04-07T05:28:03;95500.59;;;7.70
32039;BMP280;18549;42.286;22.688;2023-04-07T05:30:30;95498.00;;;7.71
32039;BMP280;18549;42.286;22.688;2023-04-07T05:32:59;95492.28;;;7.71
32039;BMP280;18549;42.286;22.688;2023-04-07T05:35:25;95493.78;;;7.73
32039;BMP280;18549;42.286;22.688;2023-04-07T05:37:52;95491.97;;;7.77
32039;BMP280;18549;42.286;22.688;2023-04-07T05:40:19;95504.91;;;7.80
32039;BMP280;18549;42.286;22.688;2023-04-07T05:42:46;95506.59;;;7.80
32039;BMP280;18549;42.286;22.688;2023-04-07T05:45:13;95494.19;;;7.81
32039;BMP280;18549;42.286;22.688;2023-04-07T05:47:40;95499.75;;;7.85
32039;BMP280;18549;42.286;22.688;2023-04-07T05:50:10;95494.00;;;7.84
32039;BMP280;18549;42.286;22.688;2023-04-07T05:52:38;95484.06;;;7.86
32039;BMP280;18549;42.286;22.688;2023-04-07T05:55:05;95490.50;;;7.88
32039;BMP280;18549;42.286;22.688;2023-04-07T05:57:33;95495.34;;;7.89
32039;BMP280;18549;42.286;22.688;2023-04-07T06:00:01;95483.97;;;7.87
32039;BMP280;18549;42.286;22.688;2023-04-07T06:02:28;95484.44;;;7.93
32039;BMP280;18549;42.286;22.688;2023-04-07T06:04:55;95485.22;;;7.94
32039;BMP280;18549;42.286;22.688;2023-04-07T06:07:23;95484.44;;;7.93
32039;BMP280;18549;42.286;22.688;2023-04-07T06:09:50;95486.03;;;7.94
32039;BMP280;18549;42.286;22.688;2023-04-07T06:12:17;95485.22;;;7.94
32039;BMP280;18549;42.286;22.688;2023-04-07T06:14:46;95483.31;;;7.99
32039;BMP280;18549;42.286;22.688;2023-04-07T06:17:17;95485.28;;;8.08
32039;BMP280;18549;42.286;22.688;2023-04-07T06:19:44;95482.00;;;8.07
32039;BMP280;18549;42.286;22.688;2023-04-07T06:22:11;95484.88;;;8.15
32039;BMP280;18549;42.286;22.688;2023-04-07T06:24:39;95490.88;;;8.25
32039;BMP280;18549;42.286;22.688;2023-04-07T06:27:06;95495.06;;;8.38
32039;BMP280;18549;42.286;22.688;2023-04-07T06:29:33;95489.22;;;8.25
32039;BMP280;18549;42.286;22.688;2023-04-07T06:32:01;95490.88;;;8.25
32039;BMP280;18549;42.286;22.688;2023-04-07T06:34:27;95489.47;;;8.21
32039;BMP280;18549;42.286;22.688;2023-04-07T06:36:55;95478.47;;;8.26
32039;BMP280;18549;42.286;22.688;2023-04-07T06:39:24;95486.47;;;8.16
32039;BMP280;18549;42.286;22.688;2023-04-07T06:41:52;95478.81;;;8.21
32039;BMP280;18549;42.286;22.688;2023-04-07T06:44:19;95486.41;;;8.31
32039;BMP280;18549;42.286;22.688;2023-04-07T06:46:46;95480.56;;;8.32
32039;BMP280;18549;42.286;22.688;2023-04-07T06:49:14;95478.09;;;8.32
32039;BMP280;18549;42.286;22.688;2023-04-07T06:51:41;95474.13;;;8.30
32039;BMP280;18549;42.286;22.688;2023-04-07T06:54:08;95481.91;;;8.38
32039;BMP280;18549;42.286;22.688;2023-04-07T06:56:40;95483.81;;;8.33
32039;BMP280;18549;42.286;22.688;2023-04-07T06:59:09;95474.59;;;8.36
32039;BMP280;18549;42.286;22.688;2023-04-07T07:01:37;95476.78;;;8.41
32039;BMP280;18549;42.286;22.688;2023-04-07T07:04:04;95473.44;;;8.42
32039;BMP280;18549;42.286;22.688;2023-04-07T07:06:31;95470.09;;;8.43
32039;BMP280;18549;42.286;22.688;2023-04-07T07:08:58;95464.00;;;8.48
32039;BMP280;18549;42.286;22.688;2023-04-07T07:11:27;95465.44;;;8.52
32039;BMP280;18549;42.286;22.688;2023-04-07T07:13:54;95466.59;;;8.60
32039;BMP280;18549;42.286;22.688;2023-04-07T07:16:22;95466.72;;;8.71
32039;BMP280;18549;42.286;22.688;2023-04-07T07:18:49;95469.91;;;8.73
32039;BMP280;18549;42.286;22.688;2023-04-07T07:21:16;95469.47;;;8.81
32039;BMP280;18549;42.286;22.688;2023-04-07T07:23:43;95470.59;;;8.89
32039;BMP280;18549;42.286;22.688;2023-04-07T07:26:12;95473.31;;;8.98
32039;BMP280;18549;42.286;22.688;2023-04-07T07:28:40;95462.69;;;9.10
32039;BMP280;18549;42.286;22.688;2023-04-07T07:31:08;95459.59;;;9.21
32039;BMP280;18549;42.286;22.688;2023-04-07T07:33:39;95464.72;;;9.31
32039;BMP280;18549;42.286;22.688;2023-04-07T07:36:08;95456.53;;;9.43
32039;BMP280;18549;42.286;22.688;2023-04-07T07:38:35;95458.81;;;9.46
32039;BMP280;18549;42.286;22.688;2023-04-07T07:41:02;95456.75;;;9.53
32039;BMP280;18549;42.286;22.688;2023-04-07T07:43:29;95463.41;;;9.52
32039;BMP280;18549;42.286;22.688;2023-04-07T07:45:56;95462.03;;;9.60
32039;BMP280;18549;42.286;22.688;2023-04-07T07:48:23;95464.16;;;9.79
32039;BMP280;18549;42.286;22.688;2023-04-07T07:50:51;95460.06;;;9.91
32039;BMP280;18549;42.286;22.688;2023-04-07T07:53:21;95461.62;;;9.92
32039;BMP280;18549;42.286;22.688;2023-04-07T07:55:48;95469.47;;;9.99
32039;BMP280;18549;42.286;22.688;2023-04-07T07:58:15;95463.94;;;9.95
32039;BMP280;18549;42.286;22.688;2023-04-07T08:00:42;95465.13;;;10.02
32039;BMP280;18549;42.286;22.688;2023-04-07T08:03:09;95465.72;;;10.06
32039;BMP280;18549;42.286;22.688;2023-04-07T08:05:36;95466.50;;;10.06
32039;BMP280;18549;42.286;22.688;2023-04-07T08:08:04;95458.69;;;10.12
32039;BMP280;18549;42.286;22.688;2023-04-07T08:10:31;95464.94;;;10.05
32039;BMP280;18549;42.286;22.688;2023-04-07T08:12:58;95459.91;;;10.19
32039;BMP280;18549;42.286;22.688;2023-04-07T08:15:25;95458.03;;;10.35
32039;BMP280;18549;42.286;22.688;2023-04-07T08:17:52;95462.28;;;10.45
32039;BMP280;18549;42.286;22.688;2023-04-07T08:20:19;95448.91;;;10.48
32039;BMP280;18549;42.286;22.688;2023-04-07T08:22:45;95451.75;;;10.54
32039;BMP280;18549;42.286;22.688;2023-04-07T08:25:14;95451.75;;;10.54
32039;BMP280;18549;42.286;22.688;2023-04-07T08:27:40;95452.19;;;10.48
32039;BMP280;18549;42.286;22.688;2023-04-07T08:30:07;95453.66;;;10.51
32039;BMP280;18549;42.286;22.688;2023-04-07T08:32:35;95458.41;;;10.53
32039;BMP280;18549;42.286;22.688;2023-04-07T08:35:03;95449.69;;;10.60
32039;BMP280;18549;42.286;22.688;2023-04-07T08:37:30;95453.13;;;10.70
32039;BMP280;18549;42.286;22.688;2023-04-07T08:39:56;95446.25;;;10.86
32039;BMP280;18549;42.286;22.688;2023-04-07T08:42:28;95436.94;;;10.89
32039;BMP280;18549;42.286;22.688;2023-04-07T08:44:58;95435.59;;;11.09
32039;BMP280;18549;42.286;22.688;2023-04-07T08:47:27;95433.66;;;11.24
32039;BMP280;18549;42.286;22.688;2023-04-07T08:49:56;95438.22;;;11.18
32039;BMP280;18549;42.286;22.688;2023-04-07T08:52:33;95431.06;;;11.26
32039;BMP280;18549;42.286;22.688;2023-04-07T08:55:00;95426.53;;;11.20
32039;BMP280;18549;42.286;22.688;2023-04-07T08:57:32;95426.91;;;11.26
32039;BMP280;18549;42.286;22.688;2023-04-07T09:00:00;95416.12;;;11.38
32039;BMP280;18549;42.286;22.688;2023-04-07T09:02:31;95427.66;;;11.39
32039;BMP280;18549;42.286;22.688;2023-04-07T09:05:00;95423.97;;;11.45
32039;BMP280;18549;42.286;22.688;2023-04-07T09:07:27;95426.06;;;11.38
32039;BMP280;18549;42.286;22.688;2023-04-07T09:09:54;95427.19;;;11.34
32039;BMP280;18549;42.286;22.688;2023-04-07T09:12:21;95427.75;;;11.38
32039;BMP280;18549;42.286;22.688;2023-04-07T09:14:49;95418.91;;;11.46
32039;BMP280;18549;42.286;22.688;2023-04-07T09:17:17;95419.53;;;11.60
32039;BMP280;18549;42.286;22.688;2023-04-07T09:19:46;95421.22;;;11.60
32039;BMP280;18549;42.286;22.688;2023-04-07T09:22:13;95420.00;;;11.65
32039;BMP280;18549;42.286;22.688;2023-04-07T09:24:40;95408.91;;;11.92
32039;BMP280;18549;42.286;22.688;2023-04-07T09:27:11;95413.94;;;11.69
32039;BMP280;18549;42.286;22.688;2023-04-07T09:29:40;95414.75;;;11.81
32039;BMP280;18549;42.286;22.688;2023-04-07T09:32:09;95398.28;;;11.90
32039;BMP280;18549;42.286;22.688;2023-04-07T09:34:37;95405.31;;;11.96
32039;BMP280;18549;42.286;22.688;2023-04-07T09:37:06;95399.16;;;12.23
32039;BMP280;18549;42.286;22.688;2023-04-07T09:39:36;95401.53;;;12.47
32039;BMP280;18549;42.286;22.688;2023-04-07T09:42:13;95413.97;;;12.47
32039;BMP280;18549;42.286;22.688;2023-04-07T09:44:40;95403.69;;;12.51
32039;BMP280;18549;42.286;22.688;2023-04-07T09:47:09;95406.50;;;12.68
32039;BMP280;18549;42.286;22.688;2023-04-07T09:49:48;95412.37;;;12.46
32039;BMP280;18549;42.286;22.688;2023-04-07T09:52:17;95393.50;;;12.54
32039;BMP280;18549;42.286;22.688;2023-04-07T09:54:45;95409.66;;;12.59
32039;BMP280;18549;42.286;22.688;2023-04-07T09:57:12;95400.97;;;12.54
32039;BMP280;18549;42.286;22.688;2023-04-07T09:59:40;95398.47;;;12.54
32039;BMP280;18549;42.286;22.688;2023-04-07T10:02:10;95404.91;;;12.24
32039;BMP280;18549;42.286;22.688;2023-04-07T10:04:37;95404.94;;;12.35
32039;BMP280;18549;42.286;22.688;2023-04-07T10:07:05;95409.09;;;12.45
32039;BMP280;18549;42.286;22.688;2023-04-07T10:09:32;95396.34;;;12.50
32039;BMP280;18549;42.286;22.688;2023-04-07T10:11:59;95403.44;;;12.54
32039;BMP280;18549;42.286;22.688;2023-04-07T10:14:31;95405.25;;;12.52
32039;BMP280;18549;42.286;22.688;2023-04-07T10:17:02;95399.72;;;12.59
32039;BMP280;18549;42.286;22.688;2023-04-07T10:19:31;95397.56;;;12.55
32039;BMP280;18549;42.286;22.688;2023-04-07T10:22:02;95394.75;;;12.49
32039;BMP280;18549;42.286;22.688;2023-04-07T10:24:42;95399.72;;;12.59
32039;BMP280;18549;42.286;22.688;2023-04-07T10:27:15;95400.38;;;12.61
32039;BMP280;18549;42.286;22.688;2023-04-07T10:29:47;95399.72;;;12.59
32039;BMP280;18549;42.286;22.688;2023-04-07T10:32:15;95391.47;;;12.59
32039;BMP280;18549;42.286;22.688;2023-04-07T10:34:57;95393.41;;;12.55
32039;BMP280;18549;42.286;22.688;2023-04-07T10:37:27;95389.22;;;12.45
32039;BMP280;18549;42.286;22.688;2023-04-07T10:40:29;95386.84;;;12.33
32039;BMP280;18549;42.286;22.688;2023-04-07T10:42:56;95397.00;;;12.41
32039;BMP280;18549;42.286;22.688;2023-04-07T10:45:54;95396.34;;;12.50
32039;BMP280;18549;42.286;22.688;2023-04-07T10:48:27;95403.91;;;12.37
32039;BMP280;18549;42.286;22.688;2023-04-07T10:51:17;95398.81;;;12.28
32039;BMP280;18549;42.286;22.688;2023-04-07T10:57:18;95391.81;;;12.65
32039;BMP280;18549;42.286;22.688;2023-04-07T11:00:13;95393.50;;;12.65
32039;BMP280;18549;42.286;22.688;2023-04-07T11:02:40;95392.50;;;12.67
32039;BMP280;18549;42.286;22.688;2023-04-07T11:05:18;95392.28;;;12.81
32039;BMP280;18549;42.286;22.688;2023-04-07T11:07:53;95395.56;;;12.82
32039;BMP280;18549;42.286;22.688;2023-04-07T11:10:22;95391.81;;;12.87
32039;BMP280;18549;42.286;22.688;2023-04-07T11:13:07;95391.34;;;12.39
32039;BMP280;18549;42.286;22.688;2023-04-07T11:15:35;95404.91;;;12.46
32039;BMP280;18549;42.286;22.688;2023-04-07T11:18:06;95394.53;;;12.52
32039;BMP280;18549;42.286;22.688;2023-04-07T11:20:44;95388.19;;;12.48
32039;BMP280;18549;42.286;22.688;2023-04-07T11:23:13;95402.88;;;12.40
32039;BMP280;18549;42.286;22.688;2023-04-07T11:25:42;95399.63;;;12.39
32039;BMP280;18549;42.286;22.688;2023-04-07T11:28:10;95405.94;;;12.43
32039;BMP280;18549;42.286;22.688;2023-04-07T11:30:38;95399.97;;;12.35
32039;BMP280;18549;42.286;22.688;2023-04-07T11:33:06;95405.03;;;12.33
32039;BMP280;18549;42.286;22.688;2023-04-07T11:35:34;95404.22;;;12.44
32039;BMP280;18549;42.286;22.688;2023-04-07T11:38:02;95402.66;;;12.53
32039;BMP280;18549;42.286;22.688;2023-04-07T11:40:35;95393.03;;;12.71
32039;BMP280;18549;42.286;22.688;2023-04-07T11:43:15;95389.91;;;12.80
32039;BMP280;18549;42.286;22.688;2023-04-07T11:45:42;95384.81;;;12.81
32039;BMP280;18549;42.286;22.688;2023-04-07T11:48:28;95381.84;;;12.76
32039;BMP280;18549;42.286;22.688;2023-04-07T11:50:55;95379.38;;;12.76
32039;BMP280;18549;42.286;22.688;2023-04-07T11:53:26;95381.31;;;12.84
32039;BMP280;18549;42.286;22.688;2023-04-07T11:56:05;95377.34;;;12.81
32039;BMP280;18549;42.286;22.688;2023-04-07T11:58:34;95380.28;;;12.86
32039;BMP280;18549;42.286;22.688;2023-04-07T12:01:03;95371.78;;;12.88
32039;BMP280;18549;42.286;22.688;2023-04-07T12:03:33;95365.53;;;13.05
32039;BMP280;18549;42.286;22.688;2023-04-07T12:06:01;95369.34;;;13.19
32039;BMP280;18549;42.286;22.688;2023-04-07T12:08:42;95364.56;;;13.27
32039;BMP280;18549;42.286;22.688;2023-04-07T12:11:11;95369.19;;;13.32
32039;BMP280;18549;42.286;22.688;2023-04-07T12:13:39;95369.50;;;13.38
32039;BMP280;18549;42.286;22.688;2023-04-07T12:16:05;95368.31;;;13.53
32039;BMP280;18549;42.286;22.688;2023-04-07T12:18:32;95370.50;;;13.67
32039;BMP280;18549;42.286;22.688;2023-04-07T12:21:00;95370.81;;;13.73
32039;BMP280;18549;42.286;22.688;2023-04-07T12:23:27;95371.44;;;13.66
32039;BMP280;18549;42.286;22.688;2023-04-07T12:25:54;95372.53;;;13.73
32039;BMP280;18549;42.286;22.688;2023-04-07T12:28:26;95369.72;;;13.86
32039;BMP280;18549;42.286;22.688;2023-04-07T12:30:53;95370.94;;;13.92
32039;BMP280;18549;42.286;22.688;2023-04-07T12:33:20;95373.56;;;13.90
32039;BMP280;18549;42.286;22.688;2023-04-07T12:35:47;95372.47;;;13.84
32039;BMP280;18549;42.286;22.688;2023-04-07T12:38:14;95369.91;;;13.74
32039;BMP280;18549;42.286;22.688;2023-04-07T12:40:41;95362.72;;;13.81
32039;BMP280;18549;42.286;22.688;2023-04-07T12:43:08;95376.09;;;13.80
32039;BMP280;18549;42.286;22.688;2023-04-07T12:45:36;95375.37;;;13.68
32039;BMP280;18549;42.286;22.688;2023-04-07T12:48:03;95373.66;;;13.69
32039;BMP280;18549;42.286;22.688;2023-04-07T12:50:30;95370.66;;;13.65
32039;BMP280;18549;42.286;22.688;2023-04-07T12:52:57;95367.41;;;13.54
32039;BMP280;18549;42.286;22.688;2023-04-07T12:55:27;95375.63;;;13.65
32039;BMP280;18549;42.286;22.688;2023-04-07T12:57:54;95372.34;;;13.65
32039;BMP280;18549;42.286;22.688;2023-04-07T13:00:21;95371.84;;;13.71
32039;BMP280;18549;42.286;22.688;2023-04-07T13:02:51;95376.47;;;13.75
32039;BMP280;18549;42.286;22.688;2023-04-07T13:05:18;95377.03;;;13.79
32039;BMP280;18549;42.286;22.688;2023-04-07T13:07:45;95382.13;;;13.77
32039;BMP280;18549;42.286;22.688;2023-04-07T13:10:12;95382.53;;;13.62
32039;BMP280;18549;42.286;22.688;2023-04-07T13:12:39;95389.03;;;13.53
32039;BMP280;18549;42.286;22.688;2023-04-07T13:15:06;95383.78;;;13.25
32039;BMP280;18549;42.286;22.688;2023-04-07T13:17:34;95381.22;;;13.27
32039;BMP280;18549;42.286;22.688;2023-04-07T13:20:05;95380.78;;;13.22
32039;BMP280;18549;42.286;22.688;2023-04-07T13:22:32;95377.25;;;13.24
32039;BMP280;18549;42.286;22.688;2023-04-07T13:24:59;95382.56;;;13.31
32039;BMP280;18549;42.286;22.688;2023-04-07T13:27:26;95384.22;;;13.10
32039;BMP280;18549;42.286;22.688;2023-04-07T13:29:53;95381.81;;;13.09
32039;BMP280;18549;42.286;22.688;2023-04-07T13:32:20;95391.06;;;13.18
32039;BMP280;18549;42.286;22.688;2023-04-07T13:34:47;95381.56;;;13.22
32039;BMP280;18549;42.286;22.688;2023-04-07T13:37:15;95382.59;;;13.09
32039;BMP280;18549;42.286;22.688;2023-04-07T13:39:43;95383.09;;;13.03
32039;BMP280;18549;42.286;22.688;2023-04-07T13:42:12;95382.69;;;13.18
32039;BMP280;18549;42.286;22.688;2023-04-07T13:44:41;95394.06;;;13.32
32039;BMP280;18549;42.286;22.688;2023-04-07T13:47:09;95391.91;;;13.38
32039;BMP280;18549;42.286;22.688;2023-04-07T13:49:36;95396.03;;;13.28
32039;BMP280;18549;42.286;22.688;2023-04-07T13:52:05;95394.00;;;13.22
32039;BMP280;18549;42.286;22.688;2023-04-07T13:54:34;95396.38;;;13.24
32039;BMP280;18549;42.286;22.688;2023-04-07T13:57:01;95400.50;;;13.34
32039;BMP280;18549;42.286;22.688;2023-04-07T13:59:27;95404.37;;;13.38
32039;BMP280;18549;42.286;22.688;2023-04-07T14:01:54;95397.56;;;13.40
32039;BMP280;18549;42.286;22.688;2023-04-07T14:04:21;95400.72;;;13.42
32039;BMP280;18549;42.286;22.688;2023-04-07T14:06:48;95401.91;;;13.27
32039;BMP280;18549;42.286;22.688;2023-04-07T14:09:15;95399.63;;;13.35
32039;BMP280;18549;42.286;22.688;2023-04-07T14:11:43;95399.84;;;13.32
32039;BMP280;18549;42.286;22.688;2023-04-07T14:14:11;95403.50;;;13.28
32039;BMP280;18549;42.286;22.688;2023-04-07T14:16:38;95409.44;;;13.06
32039;BMP280;18549;42.286;22.688;2023-04-07T14:19:05;95418.91;;;13.01